createdAt,value
2022-12-28T00:01:21.748Z,64.96
2022-12-28T00:03:49.130Z,65.27
2022-12-28T00:06:17.138Z,65.38
2022-12-28T00:08:44.292Z,65.40
2022-12-28T00:11:27.871Z,65.42
2022-12-28T00:14:00.214Z,65.42
2022-12-28T00:16:38.346Z,65.37
2022-12-28T00:19:10.890Z,65.51
2022-12-28T00:21:37.726Z,65.64
2022-12-28T00:24:05.177Z,65.67
2022-12-28T00:26:34.498Z,65.68
2022-12-28T00:29:05.135Z,65.69
2022-12-28T00:31:33.454Z,65.66
2022-12-28T00:34:00.853Z,65.72
2022-12-28T00:37:08.529Z,65.58
2022-12-28T00:39:15.110Z,65.65
2022-12-28T00:41:41.927Z,65.51
2022-12-28T00:44:09.059Z,65.41
2022-12-28T00:46:36.234Z,65.34
2022-12-28T00:49:03.195Z,65.06
2022-12-28T00:51:30.037Z,64.85
2022-12-28T00:53:56.979Z,64.88
2022-12-28T00:56:24.028Z,64.97
2022-12-28T00:58:51.011Z,64.89
2022-12-28T01:01:21.257Z,64.84
2022-12-28T01:03:48.533Z,64.68
2022-12-28T01:06:18.695Z,64.60
2022-12-28T01:08:45.992Z,64.58
2022-12-28T01:11:17.712Z,64.51
2022-12-28T01:13:45.063Z,64.39
2022-12-28T01:16:12.742Z,64.33
2022-12-28T01:18:39.586Z,64.17
2022-12-28T01:21:16.843Z,64.11
2022-12-28T01:23:45.292Z,63.97
2022-12-28T01:26:12.749Z,63.91
2022-12-28T01:28:39.979Z,63.89
2022-12-28T01:31:11.920Z,63.85
2022-12-28T01:33:39.097Z,63.69
2022-12-28T01:36:13.189Z,63.58
2022-12-28T01:38:40.013Z,63.46
2022-12-28T01:41:08.781Z,63.34
2022-12-28T01:43:43.612Z,63.27
2022-12-28T01:46:15.372Z,63.34
2022-12-28T01:48:52.680Z,63.25
2022-12-28T01:51:20.832Z,63.32
2022-12-28T01:53:50.326Z,63.44
2022-12-28T01:56:17.704Z,63.46
2022-12-28T01:58:45.492Z,63.47
2022-12-28T02:01:12.630Z,63.37
2022-12-28T02:03:39.747Z,63.37
2022-12-28T02:06:11.352Z,63.44
2022-12-28T02:08:41.922Z,63.31
2022-12-28T02:11:12.740Z,63.24
2022-12-28T02:13:40.379Z,63.19
2022-12-28T02:16:08.518Z,63.16
2022-12-28T02:18:35.560Z,63.10
2022-12-28T02:21:08.193Z,63.13
2022-12-28T02:23:44.179Z,63.04
2022-12-28T02:26:56.400Z,63.05
2022-12-28T02:29:31.230Z,63.07
2022-12-28T02:32:13.867Z,63.18
2022-12-28T02:34:47.901Z,62.86
2022-12-28T02:37:42.259Z,62.92
2022-12-28T02:40:25.153Z,62.85
2022-12-28T02:42:54.537Z,62.88
2022-12-28T02:46:01.584Z,62.78
2022-12-28T02:48:47.578Z,62.80
2022-12-28T02:51:38.772Z,62.75
2022-12-28T02:54:56.440Z,62.76
2022-12-28T02:57:41.243Z,62.81
2022-12-28T03:00:12.313Z,62.93
2022-12-28T03:03:23.603Z,63.00
2022-12-28T03:06:45.784Z,63.03
2022-12-28T03:09:12.518Z,63.03
2022-12-28T03:11:58.508Z,63.13
2022-12-28T03:14:33.085Z,63.09
2022-12-28T03:17:30.617Z,63.11
2022-12-28T03:20:23.659Z,63.05
2022-12-28T03:23:10.082Z,63.07
2022-12-28T03:26:00.974Z,63.08
2022-12-28T03:28:49.014Z,63.24
2022-12-28T03:31:21.661Z,63.19
2022-12-28T03:33:50.521Z,63.08
2022-12-28T03:36:56.327Z,62.96
2022-12-28T03:39:35.124Z,63.05
2022-12-28T03:42:32.660Z,63.22
2022-12-28T03:45:45.738Z,63.28
2022-12-28T03:48:11.526Z,63.29
2022-12-28T03:50:42.042Z,63.22
2022-12-28T03:53:09.811Z,63.37
2022-12-28T03:55:38.105Z,63.35
2022-12-28T03:58:06.267Z,63.58
2022-12-28T04:00:33.456Z,63.66
2022-12-28T04:03:00.292Z,63.74
2022-12-28T04:05:27.211Z,63.80
2022-12-28T04:07:54.026Z,63.87
2022-12-28T04:10:21.029Z,63.87
2022-12-28T04:12:47.891Z,64.00
2022-12-28T04:15:14.704Z,63.97
2022-12-28T04:17:41.585Z,64.05
2022-12-28T04:20:09.041Z,64.21
2022-12-28T04:22:35.816Z,64.42
2022-12-28T04:25:02.636Z,64.45
2022-12-28T04:27:29.491Z,64.53
2022-12-28T04:29:56.275Z,64.71
2022-12-28T04:32:23.048Z,64.68
2022-12-28T04:34:49.840Z,64.76
2022-12-28T04:37:16.670Z,64.77
2022-12-28T04:39:55.980Z,64.72
2022-12-28T04:42:27.349Z,64.89
2022-12-28T04:44:54.160Z,64.92
2022-12-28T04:47:21.005Z,64.85
2022-12-28T04:49:47.861Z,65.09
2022-12-28T04:52:14.811Z,64.97
2022-12-28T04:54:41.589Z,65.00
2022-12-28T04:57:08.413Z,64.91
2022-12-28T04:59:35.967Z,65.00
2022-12-28T05:02:02.915Z,65.07
2022-12-28T05:04:29.791Z,65.04
2022-12-28T05:06:56.557Z,64.60
2022-12-28T05:09:23.487Z,64.60
2022-12-28T05:11:50.443Z,64.75
2022-12-28T05:14:17.195Z,64.71
2022-12-28T05:16:44.033Z,64.53
2022-12-28T05:19:10.850Z,64.59
2022-12-28T05:21:37.634Z,64.42
2022-12-28T05:24:04.620Z,64.46
2022-12-28T05:26:31.477Z,64.35
2022-12-28T05:28:59.140Z,64.36
2022-12-28T05:31:26.682Z,64.80
2022-12-28T05:33:54.453Z,65.22
2022-12-28T05:36:23.715Z,65.32
2022-12-28T05:38:51.542Z,65.39
2022-12-28T05:41:23.776Z,64.74
2022-12-28T05:43:51.195Z,64.86
2022-12-28T05:46:21.326Z,64.75
2022-12-28T05:48:48.254Z,64.73
2022-12-28T05:51:18.267Z,64.64
2022-12-28T05:53:45.395Z,64.72
2022-12-28T05:56:15.324Z,64.68
2022-12-28T05:58:43.725Z,64.67
2022-12-28T06:01:12.092Z,64.63
2022-12-28T06:03:39.628Z,64.63
2022-12-28T06:06:08.444Z,64.79
2022-12-28T06:08:36.137Z,64.78
2022-12-28T06:11:04.834Z,64.75
2022-12-28T06:13:32.416Z,64.92
2022-12-28T06:15:59.654Z,64.78
2022-12-28T06:18:29.289Z,64.75
2022-12-28T06:21:02.001Z,64.67
2022-12-28T06:23:28.782Z,64.54
2022-12-28T06:25:58.407Z,64.48
2022-12-28T06:28:25.362Z,64.53
2022-12-28T06:30:53.011Z,64.54
2022-12-28T06:33:19.868Z,64.54
2022-12-28T06:35:46.672Z,64.57
2022-12-28T06:38:13.499Z,64.59
2022-12-28T06:41:11.582Z,64.72
2022-12-28T06:43:27.088Z,64.77
2022-12-28T06:45:56.074Z,64.82
2022-12-28T06:48:23.103Z,64.86
2022-12-28T06:51:17.599Z,64.94
2022-12-28T06:53:45.764Z,65.02
2022-12-28T06:56:13.849Z,64.90
2022-12-28T06:58:41.245Z,65.10
2022-12-28T07:01:20.012Z,64.95
2022-12-28T07:03:48.544Z,64.90
2022-12-28T07:06:17.339Z,65.01
2022-12-28T07:08:45.070Z,64.87
2022-12-28T07:11:17.836Z,64.99
2022-12-28T07:13:45.455Z,65.05
2022-12-28T07:16:18.687Z,64.95
2022-12-28T07:18:45.951Z,64.91
2022-12-28T07:21:21.349Z,65.10
2022-12-28T07:23:50.164Z,65.09
2022-12-28T07:26:22.235Z,65.11
2022-12-28T07:28:51.619Z,65.05
2022-12-28T07:31:21.267Z,65.10
2022-12-28T07:33:49.537Z,64.98
2022-12-28T07:36:18.701Z,65.04
2022-12-28T07:38:46.356Z,64.91
2022-12-28T07:41:16.122Z,65.13
2022-12-28T07:43:43.340Z,65.12
2022-12-28T07:46:19.179Z,64.97
2022-12-28T07:48:46.904Z,64.94
2022-12-28T07:51:19.200Z,64.80
2022-12-28T07:53:47.737Z,64.86
2022-12-28T07:56:15.864Z,64.88
2022-12-28T08:01:10.206Z,64.95
2022-12-28T08:03:37.558Z,64.80
2022-12-28T08:06:16.738Z,64.70
2022-12-28T08:08:45.339Z,64.67
2022-12-28T08:11:16.225Z,64.61
2022-12-28T08:13:44.678Z,64.58
2022-12-28T08:16:13.209Z,64.66
2022-12-28T08:18:40.848Z,64.65
2022-12-28T08:21:11.875Z,64.67
2022-12-28T08:23:38.931Z,64.73
2022-12-28T08:26:09.493Z,64.83
2022-12-28T08:28:37.742Z,64.84
2022-12-28T08:31:13.002Z,64.82
2022-12-28T08:33:40.173Z,64.81
2022-12-28T08:36:07.728Z,64.88
2022-12-28T08:38:34.833Z,64.83
2022-12-28T08:41:04.750Z,65.13
2022-12-28T08:43:32.943Z,65.52
2022-12-28T08:46:18.076Z,65.58
2022-12-28T08:48:46.447Z,65.59
2022-12-28T08:51:15.926Z,65.62
2022-12-28T08:53:43.576Z,65.18
2022-12-28T08:56:13.587Z,64.95
2022-12-28T08:58:42.015Z,65.44
2022-12-28T09:01:18.034Z,65.56
2022-12-28T09:03:48.129Z,64.91
2022-12-28T09:06:18.449Z,64.73
2022-12-28T09:09:04.915Z,64.80
2022-12-28T09:11:32.840Z,65.21
2022-12-28T09:13:59.597Z,65.29
2022-12-28T09:16:28.436Z,65.38
2022-12-28T09:18:57.851Z,65.37
2022-12-28T09:21:27.250Z,64.71
2022-12-28T09:23:54.806Z,64.51
2022-12-28T09:26:26.632Z,64.81
2022-12-28T09:28:58.815Z,65.05
2022-12-28T09:31:28.000Z,64.79
2022-12-28T09:36:49.014Z,64.35
2022-12-28T09:39:19.073Z,64.24
2022-12-28T09:41:51.118Z,64.19
2022-12-28T09:44:53.734Z,64.15
2022-12-28T09:47:29.662Z,64.17
2022-12-28T09:50:25.843Z,64.14
2022-12-28T09:53:06.539Z,64.07
2022-12-28T09:55:38.706Z,64.09
2022-12-28T09:58:13.100Z,64.07
2022-12-28T10:00:47.767Z,64.10
2022-12-28T10:03:40.803Z,64.10
2022-12-28T10:06:16.463Z,64.16
2022-12-28T10:08:48.345Z,64.16
2022-12-28T10:11:18.980Z,64.08
2022-12-28T10:13:54.760Z,64.03
2022-12-28T10:16:24.301Z,64.06
2022-12-28T10:18:51.548Z,64.13
2022-12-28T10:21:20.546Z,64.01
2022-12-28T10:24:21.311Z,63.88
2022-12-28T10:26:38.525Z,63.75
2022-12-28T10:29:06.024Z,63.61
2022-12-28T10:31:38.605Z,63.55
2022-12-28T10:34:22.821Z,63.53
2022-12-28T10:36:50.784Z,63.59
2022-12-28T10:39:24.840Z,63.46
2022-12-28T10:41:52.504Z,63.54
2022-12-28T10:44:40.297Z,63.59
2022-12-28T10:47:22.610Z,63.86
2022-12-28T10:50:18.605Z,63.96
2022-12-28T10:52:39.348Z,63.99
2022-12-28T10:55:27.864Z,63.70
2022-12-28T11:00:44.573Z,64.09
2022-12-28T11:03:18.970Z,64.00
2022-12-28T11:05:47.929Z,64.00
2022-12-28T11:08:19.624Z,63.96
2022-12-28T11:10:46.429Z,63.51
2022-12-28T11:13:22.250Z,63.26
2022-12-28T11:15:49.348Z,63.10
2022-12-28T11:18:20.568Z,63.06
2022-12-28T11:20:52.638Z,63.06
2022-12-28T11:23:25.219Z,63.02
2022-12-28T11:25:52.512Z,62.99
2022-12-28T11:28:22.445Z,62.91
2022-12-28T11:30:51.298Z,62.75
2022-12-28T11:33:32.652Z,62.60
2022-12-28T11:36:02.556Z,62.56
2022-12-28T11:38:39.962Z,62.62
2022-12-28T11:41:11.124Z,62.54
2022-12-28T11:43:40.359Z,62.56
2022-12-28T11:46:27.377Z,62.55
2022-12-28T11:49:05.654Z,62.56
2022-12-28T11:51:33.670Z,62.52
2022-12-28T11:54:06.180Z,62.33
2022-12-28T11:56:44.934Z,62.17
2022-12-28T11:59:29.789Z,62.05
2022-12-28T12:02:03.828Z,61.84
2022-12-28T12:04:42.288Z,61.82
2022-12-28T12:07:19.845Z,61.75
2022-12-28T12:09:49.185Z,61.67
2022-12-28T12:12:17.979Z,61.67
2022-12-28T12:14:49.082Z,61.72
2022-12-28T12:18:03.946Z,61.66
2022-12-28T12:20:47.216Z,61.55
2022-12-28T12:23:26.354Z,61.51
2022-12-28T12:25:55.924Z,61.60
2022-12-28T12:28:44.177Z,61.79
2022-12-28T12:31:27.040Z,61.67
2022-12-28T12:34:02.658Z,61.57
2022-12-28T12:36:51.484Z,61.48
2022-12-28T12:39:49.754Z,61.43
2022-12-28T12:42:49.486Z,61.53
2022-12-28T12:45:28.076Z,61.43
2022-12-28T12:48:31.304Z,61.44
2022-12-28T12:51:05.238Z,61.40
2022-12-28T12:53:49.170Z,61.29
2022-12-28T12:56:59.033Z,61.39
2022-12-28T12:59:31.763Z,61.46
2022-12-28T13:02:21.783Z,61.56
2022-12-28T13:04:49.323Z,61.40
2022-12-28T13:07:23.229Z,61.40
2022-12-28T13:09:54.432Z,61.38
2022-12-28T13:12:21.738Z,61.34
2022-12-28T13:14:54.512Z,61.32
2022-12-28T13:17:24.221Z,61.52
2022-12-28T13:19:51.083Z,61.55
2022-12-28T13:22:34.309Z,61.53
2022-12-28T13:25:01.141Z,61.40
2022-12-28T13:27:35.307Z,61.53
2022-12-28T13:30:03.460Z,61.59
2022-12-28T13:32:37.685Z,61.58
2022-12-28T13:35:17.597Z,61.56
2022-12-28T13:37:44.365Z,61.77
2022-12-28T13:40:16.085Z,62.05
2022-12-28T13:42:57.500Z,62.22
2022-12-28T13:45:24.559Z,62.35
2022-12-28T13:47:52.940Z,62.51
2022-12-28T13:50:30.279Z,62.62
2022-12-28T13:53:02.086Z,62.67
2022-12-28T13:55:40.331Z,62.68
2022-12-28T13:58:14.299Z,62.83
2022-12-28T14:00:46.020Z,62.92
2022-12-28T14:03:14.085Z,62.87
2022-12-28T14:05:47.526Z,62.93
2022-12-28T14:08:15.810Z,62.97
2022-12-28T14:10:43.086Z,63.02
2022-12-28T14:13:10.867Z,63.03
2022-12-28T14:15:41.424Z,63.14
2022-12-28T14:18:09.890Z,63.15
2022-12-28T14:20:49.519Z,63.20
2022-12-28T14:23:31.043Z,63.26
2022-12-28T14:26:00.663Z,63.28
2022-12-28T14:28:41.734Z,63.21
2022-12-28T14:31:10.562Z,63.32
2022-12-28T14:33:49.615Z,63.29
2022-12-28T14:36:21.201Z,63.36
2022-12-28T14:38:51.519Z,63.37
2022-12-28T14:41:22.998Z,63.31
2022-12-28T14:43:58.371Z,63.35
2022-12-28T14:46:37.345Z,63.27
2022-12-28T14:49:29.123Z,63.29
2022-12-28T14:51:57.171Z,63.29
2022-12-28T14:54:43.381Z,63.38
2022-12-28T14:57:22.467Z,63.46
2022-12-28T14:59:58.808Z,63.56
2022-12-28T15:02:34.961Z,63.81
2022-12-28T15:05:02.726Z,64.00
2022-12-28T15:07:31.659Z,64.05
2022-12-28T15:09:58.707Z,64.22
2022-12-28T15:12:25.598Z,64.50
2022-12-28T15:14:52.409Z,64.55
2022-12-28T15:17:19.420Z,64.71
2022-12-28T15:19:46.242Z,64.63
2022-12-28T15:22:13.778Z,64.56
2022-12-28T15:24:45.200Z,64.57
2022-12-28T15:27:12.512Z,64.52
2022-12-28T15:30:04.352Z,64.73
2022-12-28T15:32:28.143Z,64.92
2022-12-28T15:34:55.009Z,65.13
2022-12-28T15:37:21.815Z,65.31
2022-12-28T15:39:48.818Z,65.42
2022-12-28T15:42:15.641Z,65.50
2022-12-28T15:44:42.413Z,65.65
2022-12-28T15:47:09.229Z,65.76
2022-12-28T15:49:36.172Z,65.69
2022-12-28T15:52:02.981Z,65.61
2022-12-28T15:54:29.827Z,65.67
2022-12-28T15:56:57.001Z,65.61
2022-12-28T15:59:24.045Z,65.79
2022-12-28T16:01:51.112Z,65.79
2022-12-28T16:04:18.003Z,65.80
2022-12-28T16:06:45.488Z,65.78
2022-12-28T16:09:13.775Z,65.71
2022-12-28T16:11:41.177Z,65.70
2022-12-28T16:14:13.073Z,65.77
2022-12-28T16:16:40.744Z,65.74
2022-12-28T16:19:09.027Z,65.78
2022-12-28T16:21:36.307Z,65.76
2022-12-28T16:24:03.747Z,65.75
2022-12-28T16:26:30.797Z,65.85
2022-12-28T16:29:00.895Z,65.96
2022-12-28T16:31:35.644Z,65.95
2022-12-28T16:34:04.240Z,66.05
2022-12-28T16:36:32.070Z,66.15
2022-12-28T16:38:58.968Z,66.24
2022-12-28T16:41:28.825Z,66.26
2022-12-28T16:44:05.913Z,66.33
2022-12-28T16:46:32.881Z,66.32
2022-12-28T16:49:01.639Z,66.43
2022-12-28T16:51:31.717Z,66.35
2022-12-28T16:53:58.740Z,66.29
2022-12-28T16:56:25.600Z,66.41
2022-12-28T16:58:59.135Z,66.47
2022-12-28T17:01:26.784Z,66.40
2022-12-28T17:03:56.250Z,66.55
2022-12-28T17:06:25.494Z,66.66
2022-12-28T17:08:52.332Z,66.75
2022-12-28T17:11:19.296Z,66.74
2022-12-28T17:13:46.076Z,66.87
2022-12-28T17:16:12.935Z,66.87
2022-12-28T17:18:39.751Z,66.75
2022-12-28T17:21:10.178Z,66.99
2022-12-28T17:23:39.484Z,67.12
2022-12-28T17:26:06.945Z,67.17
2022-12-28T17:28:33.843Z,67.06
2022-12-28T17:31:14.291Z,67.15
2022-12-28T17:33:45.674Z,67.22
2022-12-28T17:36:12.782Z,67.28
2022-12-28T17:38:39.847Z,67.39
2022-12-28T17:41:13.154Z,67.35
2022-12-28T17:43:40.331Z,67.45
2022-12-28T17:46:07.487Z,67.44
2022-12-28T17:48:34.738Z,67.57
2022-12-28T17:51:10.647Z,67.74
2022-12-28T17:53:38.945Z,67.88
2022-12-28T17:56:09.189Z,68.02
2022-12-28T17:58:36.285Z,68.03
2022-12-28T18:01:04.095Z,67.98
2022-12-28T18:03:33.886Z,68.18
2022-12-28T18:06:01.439Z,68.15
2022-12-28T18:08:28.903Z,68.24
2022-12-28T18:10:56.409Z,68.26
2022-12-28T18:13:24.110Z,68.21
2022-12-28T18:15:51.171Z,68.09
2022-12-28T18:18:18.415Z,68.06
2022-12-28T18:20:45.989Z,68.18
2022-12-28T18:23:13.060Z,67.84
2022-12-28T18:25:40.166Z,67.92
2022-12-28T18:28:07.282Z,67.89
2022-12-28T18:30:35.059Z,67.87
2022-12-28T18:33:01.953Z,67.87
2022-12-28T18:35:28.916Z,67.81
2022-12-28T18:37:56.453Z,67.75
2022-12-28T18:40:24.258Z,67.66
2022-12-28T18:42:51.756Z,67.75
2022-12-28T18:45:19.282Z,67.69
2022-12-28T18:47:46.573Z,67.79
2022-12-28T18:50:15.987Z,67.68
2022-12-28T18:52:44.923Z,67.60
2022-12-28T18:55:12.027Z,67.65
2022-12-28T18:57:39.114Z,67.62
2022-12-28T19:00:08.219Z,67.48
2022-12-28T19:02:35.547Z,67.55
2022-12-28T19:05:03.196Z,67.34
2022-12-28T19:07:30.886Z,67.47
2022-12-28T19:10:14.260Z,67.48
2022-12-28T19:12:43.189Z,67.41
2022-12-28T19:15:10.802Z,67.46
2022-12-28T19:17:37.751Z,67.34
2022-12-28T19:20:05.419Z,67.26
2022-12-28T19:22:32.450Z,67.30
2022-12-28T19:24:59.715Z,67.44
2022-12-28T19:27:27.096Z,67.50
2022-12-28T19:29:54.063Z,67.55
2022-12-28T19:32:21.309Z,67.34
2022-12-28T19:34:48.163Z,67.60
2022-12-28T19:37:15.752Z,67.50
2022-12-28T19:39:43.535Z,67.52
2022-12-28T19:42:11.038Z,67.54
2022-12-28T19:44:38.586Z,67.49
2022-12-28T19:47:05.872Z,67.71
2022-12-28T19:49:33.226Z,67.68
2022-12-28T19:52:02.566Z,67.62
2022-12-28T19:54:30.814Z,67.62
2022-12-28T19:56:57.843Z,67.48
2022-12-28T19:59:25.094Z,67.74
2022-12-28T20:01:52.613Z,67.71
2022-12-28T20:04:20.294Z,67.71
2022-12-28T20:06:47.719Z,68.25
2022-12-28T20:09:14.932Z,68.63
2022-12-28T20:11:45.007Z,68.76
2022-12-28T20:14:14.601Z,68.78
2022-12-28T20:16:43.187Z,68.83
2022-12-28T20:19:12.523Z,68.15
2022-12-28T20:21:42.029Z,68.34
2022-12-28T20:24:10.715Z,67.90
2022-12-28T20:26:38.459Z,67.77
2022-12-28T20:29:09.074Z,67.74
2022-12-28T20:31:36.410Z,67.63
2022-12-28T20:34:03.347Z,67.61
2022-12-28T20:36:34.225Z,67.68
2022-12-28T20:39:02.117Z,67.52
2022-12-28T20:41:49.912Z,67.57
2022-12-28T20:44:22.738Z,67.49
2022-12-28T20:46:50.057Z,67.62
2022-12-28T20:49:17.779Z,67.48
2022-12-28T20:51:46.767Z,67.55
2022-12-28T20:54:14.516Z,67.58
2022-12-28T20:56:47.887Z,67.55
2022-12-28T20:59:17.722Z,67.43
2022-12-28T21:01:44.901Z,67.27
2022-12-28T21:04:12.428Z,67.37
2022-12-28T21:06:39.775Z,67.48
2022-12-28T21:09:07.125Z,67.43
2022-12-28T21:11:34.763Z,67.52
2022-12-28T21:14:01.913Z,67.54
2022-12-28T21:16:29.476Z,67.57
2022-12-28T21:18:56.427Z,67.59
2022-12-28T21:21:23.549Z,67.51
2022-12-28T21:23:52.823Z,67.38
2022-12-28T21:26:21.503Z,67.28
2022-12-28T21:28:49.022Z,67.27
2022-12-28T21:31:16.177Z,67.27
2022-12-28T21:33:43.423Z,67.25
2022-12-28T21:36:15.851Z,67.22
2022-12-28T21:38:44.786Z,67.32
2022-12-28T21:41:16.222Z,67.19
2022-12-28T21:43:43.383Z,67.20
2022-12-28T21:46:14.669Z,67.22
2022-12-28T21:48:42.550Z,67.39
2022-12-28T21:51:31.571Z,67.38
2022-12-28T21:53:59.870Z,67.28
2022-12-28T21:56:27.149Z,67.29
2022-12-28T21:58:54.561Z,67.27
2022-12-28T22:01:40.683Z,67.29
2022-12-28T22:04:29.027Z,67.27
2022-12-28T22:06:55.875Z,67.24
2022-12-28T22:09:41.646Z,67.22
2022-12-28T22:12:29.739Z,67.20
2022-12-28T22:15:16.818Z,67.45
2022-12-28T22:17:44.144Z,67.73
2022-12-28T22:20:12.920Z,67.82
2022-12-28T22:22:41.284Z,67.77
2022-12-28T22:25:09.361Z,67.73
2022-12-28T22:27:36.238Z,67.78
2022-12-28T22:30:04.437Z,67.81
2022-12-28T22:32:31.256Z,67.69
2022-12-28T22:34:58.093Z,67.64
2022-12-28T22:37:24.859Z,67.62
2022-12-28T22:39:51.652Z,67.57
2022-12-28T22:42:18.443Z,67.58
2022-12-28T22:44:45.342Z,67.51
2022-12-28T22:47:12.142Z,67.52
2022-12-28T22:49:38.935Z,67.51
2022-12-28T22:52:05.726Z,67.55
2022-12-28T22:54:32.526Z,67.31
2022-12-28T22:56:59.420Z,67.26
2022-12-28T22:59:26.468Z,67.37
2022-12-28T23:01:54.059Z,67.45
2022-12-28T23:04:21.468Z,67.46
2022-12-28T23:06:48.332Z,67.43
2022-12-28T23:09:15.218Z,67.48
2022-12-28T23:11:42.192Z,67.59
2022-12-28T23:14:30.385Z,67.59
2022-12-28T23:16:57.522Z,67.59
2022-12-28T23:19:42.916Z,67.57
2022-12-28T23:22:34.170Z,67.56
2022-12-28T23:25:19.970Z,67.60
2022-12-28T23:27:47.388Z,67.61
2022-12-28T23:30:17.755Z,67.53
2022-12-28T23:32:49.054Z,67.40
2022-12-28T23:35:17.340Z,67.48
2022-12-28T23:37:44.882Z,67.45
2022-12-28T23:40:14.292Z,67.45
2022-12-28T23:42:42.263Z,67.47
2022-12-28T23:45:11.500Z,67.47
2022-12-28T23:47:38.502Z,67.50
2022-12-28T23:50:06.285Z,67.46
2022-12-28T23:52:33.757Z,67.53
2022-12-28T23:55:00.674Z,67.53
2022-12-28T23:57:27.576Z,67.55
2022-12-28T23:59:54.635Z,67.46
